• vieta
  • image
  • image
  • image
mod_vvisit_countermod_vvisit_countermod_vvisit_countermod_vvisit_countermod_vvisit_countermod_vvisit_counter
mod_vvisit_counterŠiandien85
mod_vvisit_counterVakar942
mod_vvisit_counterŠią savaitę4494
mod_vvisit_counterPraėjusią savaitę6203
mod_vvisit_counterŠį mėnesį17190
mod_vvisit_counterPraėjusį mėnesį16929
mod_vvisit_counterViso980116

Mes turime: 32 svečius, 1 bots online
Jūsų IP: 54.156.51.193
 , 
Šiandien: Rugs 23, 2018
Oro uostas / Naujienos / 2012 Lapkritis

2012 Lapkritis

2012 m. lapkričio 15-17 dienomis Stambule (Turkija) vyko šeštoji „Logitrans 2012“ transporto ir logistikos paroda, kurioje susirinko transporto ir logistikos sektorių atstovai tam, kad sustiprintų verslo santykius, suburtų eksponentus bei potencialius partnerius, įgytų naujų partnerių, praplėstų akiratį bei vystytų perspektyvias verslo idėjas. Parodą aplankė daugiau nei 12 600 dalyvių iš 53 šalių. Joje dalyvavo logistikos operatoriai, intermodaliniai/jungtiniai vežėjai, kelių transporto įmonės, oro linijų bendrovės, oro uostų operatoriai, ekspeditoriai ir kt.

T01T06
Iš viso 194 kompanijų iš 16 šalių pateikė savo produktus ir paslaugas. Pirmą kartą parodoje dalyvavo eksponentai iš Indijos, Jordanijos, Naujosios Zelandijos, Švedijos ir Slovėnijos. Pagrindinės 5 šalys dalyvės buvo Turkija, Vokietija, Italija, Austrija ir Latvija. Svarbiausios temos parodoje buvo Turkijos rinkos logistikostinklosu Europa kūrimas ir pokyčiai Turkijos transporto sektoriuje.

T02T03
Siekdami sustiprinti esamus ryšius su Turkijos oro transporto bendrovėmis bei užmegzti naujusryšius su galimais potencialiais verslo partneriais, parodoje lankėsi ir Savivaldybės įmonės Šiaulių oro uosto atstovai, kurie susitiko su tokiomis Turkijos krovinių oro linijų bendrovėmis, kaip „ACT Airlines INC“, „ULS Airlines Cargo“, nacionaliniu oro vežėju „Turkish Airlines“, oro linijų pardavimų ir paslaugų teikimo bendrove „Airmark Airline Marketing & Services“ bei aptarė bendradarbiavimo klausimus. Tikimasi, kad dalyvavimas parodoje ir tête-à-tête susitikimai duos Šiaulių oro uostui apčiuopiamos naudos plečiant eksporto ir importo apimtis Šiaulių regione.

T04T05
Šiaulių oro uostas krovinių gabenimo srityje su Turkija bendradarbiauja nuo 2012 m. gegužės mėnesio, kai iš Stambulo pradėtos gabenti pramoninės prekės į Šiaulių oro uostą, kurios vėliau antžeminiu transportu paskirstomos įvairiomis kryptimis. 

Šiandien

Sekmadienis, 23 Rugsėjis 2018

Orų prognozė aviacijai

[source: ADDS]
METAR
EYSA 230020Z 19014KT 9999 -SHRA FEW036CB OVC057 09/07 Q1008 BLU NOSIG =
TAF EYSA 222309Z 2300/2309 23014KT 9000 BKN025 TEMPO 2300/2303 5000 -TSRA SCT005 BKN015CB TEMPO 2303/2309 3000 TSRA SCT005 BKN015CB
TAF
TAF EYSA 222309Z 2300/2309 23014KT 9000 BKN025 TEMPO 2300/2303 5000 -TSRA SCT005 BKN015CB TEMPO 2303/2309 3000 TSRA SCT005 BKN015CB =
SR / SS: 04:15 / 16:24 UTC (EYSA 2018-09-23)

Paieška

Lankytojai

Mes turime 33 svečius online

tic logo lt